Time;durP1;ratioP1;P1;durP2;ratioP2;P2;SDS_P1;SDS_P2;PMS_P1;PMS_P2;Temp;Humidity;BMP_temperature;BMP_pressure;BME280_temperature;BME280_humidity;BME280_pressure;Samples;Min_cycle;Max_cycle;Signal;HPM_P1;HPM_P2
2020/12/30 00:00:54;;;;;;;0.50;0.50;;;3.30;99.90;;;;;;5009650;28;20201;-86
2020/12/30 00:03:20;;;;;;;0.50;0.50;;;3.30;99.90;;;;;;5008968;28;20209;-86
2020/12/30 00:05:46;;;;;;;0.50;0.50;;;3.30;99.90;;;;;;5009492;28;20201;-86
2020/12/30 00:08:13;;;;;;;0.40;0.40;;;3.30;99.90;;;;;;5010674;28;20559;-86
2020/12/30 00:10:39;;;;;;;0.50;0.50;;;3.40;99.90;;;;;;5010115;28;20679;-87
2020/12/30 00:13:06;;;;;;;0.50;0.50;;;3.30;99.90;;;;;;5010531;28;20207;-86
2020/12/30 00:15:33;;;;;;;0.50;0.50;;;3.30;99.90;;;;;;5010377;28;20292;-86
2020/12/30 00:17:59;;;;;;;0.50;0.50;;;3.30;99.90;;;;;;5010198;28;20205;-86
2020/12/30 00:20:25;;;;;;;0.50;0.50;;;3.30;99.90;;;;;;5010568;28;20259;-86
2020/12/30 00:26:11;;;;;;;0.50;0.50;;;3.30;99.90;;;;;;5004646;28;20295;-87
2020/12/30 00:28:37;;;;;;;0.50;0.50;;;3.30;99.90;;;;;;5007359;28;20209;-87
2020/12/30 00:31:08;;;;;;;0.50;0.50;;;2.80;99.90;;;;;;5009836;28;20228;-87
2020/12/30 00:33:34;;;;;;;0.40;0.40;;;2.80;99.90;;;;;;5009494;28;20221;-87
2020/12/30 00:36:07;;;;;;;0.50;0.50;;;3.30;99.90;;;;;;5010029;28;20198;-87
2020/12/30 00:38:40;;;;;;;0.50;0.50;;;3.30;99.90;;;;;;5009946;28;20297;-87
2020/12/30 00:41:14;;;;;;;0.47;0.47;;;3.00;99.90;;;;;;5008649;28;20194;-87
2020/12/30 00:43:44;;;;;;;0.50;0.50;;;3.40;99.90;;;;;;5008963;28;20885;-87
2020/12/30 00:46:17;;;;;;;0.50;0.50;;;3.60;99.90;;;;;;5010561;28;20714;-87
2020/12/30 00:48:43;;;;;;;0.50;0.50;;;3.30;99.90;;;;;;5010548;28;20210;-87
2020/12/30 00:51:13;;;;;;;0.50;0.50;;;4.70;99.90;;;;;;5010415;28;20205;-87
2020/12/30 00:53:39;;;;;;;0.50;0.50;;;3.30;99.90;;;;;;5010126;28;20248;-87
2020/12/30 00:56:09;;;;;;;0.47;0.47;;;3.30;99.90;;;;;;5010411;28;20202;-87
2020/12/30 00:58:37;;;;;;;0.50;0.50;;;2.90;99.90;;;;;;5010037;28;20232;-87
2020/12/30 01:01:06;;;;;;;0.50;0.50;;;2.90;99.90;;;;;;5008797;28;20197;-87
2020/12/30 01:03:34;;;;;;;0.50;0.50;;;3.10;99.90;;;;;;5008709;28;20212;-87
2020/12/30 01:06:06;;;;;;;0.50;0.50;;;2.80;99.90;;;;;;5009375;28;20209;-87
2020/12/30 01:08:33;;;;;;;0.50;0.50;;;3.30;99.90;;;;;;5010916;28;20203;-87
2020/12/30 01:10:59;;;;;;;0.50;0.50;;;2.90;99.90;;;;;;5014015;28;20251;-87
2020/12/30 01:13:29;;;;;;;0.50;0.50;;;3.30;99.90;;;;;;5014681;28;20275;-86
2020/12/30 01:16:00;;;;;;;0.50;0.50;;;4.40;99.90;;;;;;5012166;28;20206;-87
2020/12/30 01:18:27;;;;;;;0.50;0.50;;;3.30;99.90;;;;;;5013213;28;20204;-87
2020/12/30 01:21:01;;;;;;;0.50;0.50;;;3.20;99.90;;;;;;5012913;28;20232;-87
2020/12/30 01:23:31;;;;;;;0.50;0.50;;;3.20;99.90;;;;;;5012111;28;20294;-87
2020/12/30 01:25:57;;;;;;;0.50;0.50;;;4.60;99.90;;;;;;5011970;28;20657;-87
2020/12/30 01:28:23;;;;;;;0.50;0.50;;;3.30;99.90;;;;;;5012274;28;20595;-87
2020/12/30 01:30:51;;;;;;;0.50;0.50;;;3.00;99.90;;;;;;5013518;28;20707;-87
2020/12/30 01:33:17;;;;;;;0.50;0.50;;;3.30;99.90;;;;;;5013674;28;20232;-87
2020/12/30 01:35:56;;;;;;;0.50;0.50;;;3.30;99.90;;;;;;5013914;28;20205;-86
2020/12/30 01:38:24;;;;;;;0.50;0.50;;;4.00;99.90;;;;;;5013378;28;20200;-87
2020/12/30 01:40:57;;;;;;;0.50;0.50;;;3.40;99.90;;;;;;5013827;28;20208;-86
2020/12/30 01:43:23;;;;;;;0.50;0.50;;;3.30;99.90;;;;;;5013288;28;20230;-87
2020/12/30 01:45:50;;;;;;;0.50;0.50;;;3.30;99.90;;;;;;5013310;28;20200;-87
2020/12/30 01:48:17;;;;;;;0.50;0.50;;;4.50;99.90;;;;;;5013312;28;20224;-87
2020/12/30 01:50:46;;;;;;;0.50;0.50;;;3.30;99.90;;;;;;5013165;28;20202;-87
2020/12/30 01:53:15;;;;;;;0.50;0.50;;;3.90;99.90;;;;;;5012512;28;20575;-87
2020/12/30 01:55:43;;;;;;;0.50;0.50;;;3.20;99.90;;;;;;5012554;28;20260;-87
2020/12/30 01:58:11;;;;;;;0.50;0.50;;;3.70;99.90;;;;;;5012388;28;20210;-87
2020/12/30 02:00:42;;;;;;;0.50;0.50;;;3.40;99.90;;;;;;5013127;28;20198;-86
2020/12/30 02:03:18;;;;;;;0.40;0.40;;;3.20;99.90;;;;;;5013137;28;20194;-87
2020/12/30 02:05:52;;;;;;;0.50;0.50;;;3.40;99.90;;;;;;5013375;28;20544;-85
2020/12/30 02:08:18;;;;;;;0.50;0.50;;;3.40;99.90;;;;;;5012833;28;20206;-85
2020/12/30 02:10:47;;;;;;;0.50;0.50;;;3.40;99.90;;;;;;5012787;28;20929;-85
2020/12/30 02:13:14;;;;;;;0.50;0.50;;;3.40;99.90;;;;;;5012860;28;20201;-85
2020/12/30 02:15:40;;;;;;;0.47;0.47;;;3.40;99.90;;;;;;5011880;28;20202;-84
2020/12/30 02:18:06;;;;;;;0.50;0.50;;;3.40;99.90;;;;;;5011128;28;20216;-85
2020/12/30 02:20:32;;;;;;;0.50;0.50;;;3.30;99.90;;;;;;5010996;28;20209;-85
2020/12/30 02:23:05;;;;;;;0.50;0.50;;;3.30;99.90;;;;;;5010877;28;20233;-85
2020/12/30 02:25:32;;;;;;;0.50;0.50;;;3.20;99.90;;;;;;5011322;28;20209;-86
2020/12/30 02:27:58;;;;;;;0.50;0.50;;;3.10;99.90;;;;;;5011283;28;20218;-85
2020/12/30 02:30:31;;;;;;;0.50;0.50;;;3.30;99.90;;;;;;5010993;28;20208;-85
2020/12/30 02:32:57;;;;;;;0.50;0.50;;;3.30;99.90;;;;;;5011693;28;20711;-86
2020/12/30 02:35:28;;;;;;;0.50;0.50;;;3.30;99.90;;;;;;5010935;28;20225;-86
2020/12/30 02:38:02;;;;;;;0.50;0.50;;;3.30;99.90;;;;;;5011424;28;20201;-86
2020/12/30 02:40:30;;;;;;;0.50;0.50;;;3.40;99.90;;;;;;5010908;28;20405;-86
2020/12/30 02:42:57;;;;;;;0.50;0.50;;;3.30;99.90;;;;;;5011516;28;20574;-86
2020/12/30 02:45:28;;;;;;;0.50;0.50;;;3.00;99.90;;;;;;5010763;28;20235;-86
2020/12/30 02:47:55;;;;;;;0.50;0.50;;;5.90;99.90;;;;;;5010963;28;20297;-86
2020/12/30 02:50:21;;;;;;;0.50;0.50;;;3.20;99.90;;;;;;5011314;28;20209;-85
2020/12/30 02:53:00;;;;;;;;;;;;;;;;;;;;;
2020/12/30 02:55:27;;;;;;;0.50;0.50;;;3.40;99.90;;;;;;5011459;28;20231;-85
2020/12/30 02:57:53;;;;;;;0.50;0.50;;;3.00;99.90;;;;;;5012053;28;20218;-85
2020/12/30 03:00:22;;;;;;;0.50;0.50;;;3.40;99.90;;;;;;5010691;28;20205;-86
2020/12/30 03:02:52;;;;;;;0.50;0.50;;;3.40;99.90;;;;;;5011572;28;20201;-85
2020/12/30 03:05:20;;;;;;;0.50;0.50;;;3.50;99.90;;;;;;5011432;28;20212;-86
2020/12/30 03:07:49;;;;;;;0.50;0.50;;;3.40;99.90;;;;;;5011988;28;20201;-85
2020/12/30 03:10:19;;;;;;;0.50;0.50;;;3.40;99.90;;;;;;5011411;28;20202;-86
2020/12/30 03:12:46;;;;;;;0.50;0.50;;;3.40;99.90;;;;;;5011815;28;20527;-85
2020/12/30 03:15:12;;;;;;;0.50;0.50;;;3.40;99.90;;;;;;5011478;28;20298;-85
2020/12/30 03:17:39;;;;;;;0.50;0.50;;;3.50;99.90;;;;;;5011533;28;20260;-86
2020/12/30 03:20:05;;;;;;;0.50;0.50;;;3.40;99.90;;;;;;5011714;28;20214;-85
2020/12/30 03:22:31;;;;;;;0.50;0.50;;;3.40;99.90;;;;;;5011122;28;20225;-85
2020/12/30 03:25:05;;;;;;;0.50;0.50;;;4.80;99.90;;;;;;5011264;28;20788;-85
2020/12/30 03:27:33;;;;;;;0.50;0.50;;;3.40;99.90;;;;;;5011071;28;20197;-87
2020/12/30 03:30:05;;;;;;;0.60;0.60;;;3.30;99.90;;;;;;5011869;28;20204;-86
2020/12/30 03:32:32;;;;;;;0.60;0.60;;;3.30;99.90;;;;;;5010589;28;20206;-86
2020/12/30 03:35:10;;;;;;;0.50;0.50;;;5.10;99.90;;;;;;5011199;28;20249;-86
2020/12/30 03:37:37;;;;;;;0.50;0.50;;;3.50;99.90;;;;;;5011521;28;20356;-86
2020/12/30 03:40:04;;;;;;;0.50;0.50;;;3.50;99.90;;;;;;5010795;28;20212;-88
2020/12/30 03:42:30;;;;;;;0.50;0.50;;;3.50;99.90;;;;;;5010606;28;20210;-86
2020/12/30 03:44:56;;;;;;;0.50;0.50;;;3.30;99.90;;;;;;5011316;28;20296;-86
2020/12/30 03:47:28;;;;;;;0.60;0.60;;;3.50;99.90;;;;;;5010627;28;20288;-86
2020/12/30 03:49:54;;;;;;;0.50;0.50;;;2.90;99.90;;;;;;5010833;28;20194;-86
2020/12/30 03:52:21;;;;;;;0.50;0.50;;;3.50;99.90;;;;;;5010994;28;20252;-86
2020/12/30 03:54:47;;;;;;;0.50;0.50;;;3.60;99.90;;;;;;5011202;28;20233;-86
2020/12/30 03:57:13;;;;;;;0.50;0.50;;;3.50;99.90;;;;;;5010943;28;20198;-86
2020/12/30 03:59:45;;;;;;;0.50;0.50;;;3.50;99.90;;;;;;5011222;28;20210;-86
2020/12/30 04:02:11;;;;;;;0.50;0.50;;;3.50;99.90;;;;;;5010916;28;20213;-87
2020/12/30 04:04:37;;;;;;;0.50;0.50;;;3.50;99.90;;;;;;5010629;28;20202;-86
2020/12/30 04:07:03;;;;;;;0.60;0.60;;;3.60;99.90;;;;;;5010886;28;20208;-87
2020/12/30 04:09:32;;;;;;;0.50;0.50;;;3.60;99.90;;;;;;5010587;28;20297;-86
2020/12/30 04:12:02;;;;;;;0.50;0.50;;;3.50;99.90;;;;;;5010186;28;20213;-86
2020/12/30 04:14:31;;;;;;;0.50;0.50;;;3.50;99.90;;;;;;5009598;28;20237;-86
2020/12/30 04:17:06;;;;;;;0.60;0.60;;;3.60;99.90;;;;;;5010366;28;20210;-87
2020/12/30 04:19:32;;;;;;;0.50;0.50;;;3.50;99.90;;;;;;5011036;28;20627;-87
2020/12/30 04:21:58;;;;;;;0.50;0.50;;;3.40;99.90;;;;;;5010868;28;20219;-86
2020/12/30 04:24:25;;;;;;;0.50;0.50;;;3.60;99.90;;;;;;5009953;28;20233;-87
2020/12/30 04:26:52;;;;;;;0.50;0.50;;;3.60;99.90;;;;;;5010792;28;20651;-86
2020/12/30 04:29:18;;;;;;;0.60;0.60;;;3.40;99.90;;;;;;5010688;28;20212;-86
2020/12/30 04:31:44;;;;;;;0.50;0.50;;;3.40;99.90;;;;;;5011105;28;20238;-86
2020/12/30 04:34:10;;;;;;;0.50;0.50;;;3.60;99.90;;;;;;5010557;28;20236;-87
2020/12/30 04:36:36;;;;;;;0.50;0.50;;;3.60;99.90;;;;;;5010550;28;20209;-86
2020/12/30 04:39:03;;;;;;;0.50;0.50;;;3.60;99.90;;;;;;5010734;28;20213;-87
2020/12/30 04:41:36;;;;;;;0.50;0.50;;;3.50;99.90;;;;;;5009521;28;20256;-86
2020/12/30 04:44:04;;;;;;;0.50;0.50;;;3.50;99.90;;;;;;5012143;28;20201;-86
2020/12/30 04:46:31;;;;;;;0.50;0.50;;;3.60;99.90;;;;;;5015136;28;20213;-87
2020/12/30 04:48:58;;;;;;;0.50;0.50;;;3.60;99.90;;;;;;5015292;28;20206;-86
2020/12/30 04:51:25;;;;;;;0.50;0.50;;;3.50;99.90;;;;;;5015117;28;20773;-86
2020/12/30 04:53:55;;;;;;;0.50;0.50;;;3.60;99.90;;;;;;5015459;28;20237;-86
2020/12/30 04:56:37;;;;;;;0.60;0.60;;;3.60;99.90;;;;;;5015130;28;20201;-87
2020/12/30 04:59:09;;;;;;;0.55;0.55;;;3.50;99.90;;;;;;5015008;28;20193;-87
2020/12/30 05:01:42;;;;;;;0.50;0.50;;;3.50;99.90;;;;;;5014938;28;20208;-86
2020/12/30 05:04:12;;;;;;;0.60;0.60;;;3.50;99.90;;;;;;5015269;28;20839;-87
2020/12/30 05:06:40;;;;;;;0.60;0.60;;;3.50;99.90;;;;;;5014986;28;20226;-87
2020/12/30 05:09:07;;;;;;;0.50;0.50;;;3.20;99.90;;;;;;5015501;28;20336;-86
2020/12/30 05:11:33;;;;;;;0.50;0.50;;;3.30;99.90;;;;;;5014667;28;20209;-87
2020/12/30 05:13:59;;;;;;;0.50;0.50;;;3.50;99.90;;;;;;5015206;28;20229;-86
2020/12/30 05:16:28;;;;;;;0.60;0.60;;;3.50;99.90;;;;;;5012300;28;20201;-87
2020/12/30 05:19:05;;;;;;;0.60;0.60;;;3.50;99.90;;;;;;5013922;28;20206;-86
2020/12/30 05:21:31;;;;;;;0.50;0.50;;;3.40;99.90;;;;;;5012376;28;20205;-86
2020/12/30 05:23:58;;;;;;;0.50;0.50;;;3.50;99.90;;;;;;5011954;28;20230;-86
2020/12/30 05:26:25;;;;;;;0.50;0.50;;;3.40;99.90;;;;;;5012208;28;20688;-86
2020/12/30 05:28:52;;;;;;;0.60;0.60;;;3.40;99.90;;;;;;5012655;28;20212;-86
2020/12/30 05:31:19;;;;;;;0.50;0.50;;;3.40;99.90;;;;;;5013589;28;20275;-85
2020/12/30 05:33:46;;;;;;;0.50;0.50;;;3.40;99.90;;;;;;5013746;28;20233;-86
2020/12/30 05:36:14;;;;;;;0.50;0.50;;;3.50;99.90;;;;;;5013651;28;20212;-85
2020/12/30 05:38:41;;;;;;;0.50;0.50;;;3.40;99.90;;;;;;5013150;28;20624;-85
2020/12/30 05:41:17;;;;;;;0.50;0.50;;;3.40;99.90;;;;;;5013527;28;20264;-86
2020/12/30 05:43:43;;;;;;;0.50;0.50;;;3.40;99.90;;;;;;5013557;28;20205;-86
2020/12/30 05:46:09;;;;;;;0.50;0.50;;;3.30;99.90;;;;;;5013427;28;20206;-86
2020/12/30 05:48:35;;;;;;;0.50;0.50;;;3.30;99.90;;;;;;5012879;28;20216;-85
2020/12/30 05:51:02;;;;;;;0.50;0.50;;;3.30;99.90;;;;;;5013586;28;20201;-86
2020/12/30 05:53:29;;;;;;;0.50;0.50;;;3.30;99.90;;;;;;5012698;28;20730;-86
2020/12/30 05:56:09;;;;;;;0.50;0.50;;;3.30;99.90;;;;;;5012556;28;20202;-86
2020/12/30 05:58:41;;;;;;;0.60;0.60;;;3.30;99.90;;;;;;5012881;28;20201;-85
2020/12/30 06:01:27;;;;;;;0.55;0.55;;;3.20;99.90;;;;;;5012709;28;20271;-85
2020/12/30 06:03:53;;;;;;;0.50;0.50;;;3.20;99.90;;;;;;5013096;28;20241;-85
2020/12/30 06:06:22;;;;;;;0.50;0.50;;;3.20;99.90;;;;;;5013175;28;20212;-85
2020/12/30 06:08:48;;;;;;;0.50;0.50;;;3.20;99.90;;;;;;5012595;28;20209;-85
2020/12/30 06:11:21;;;;;;;0.50;0.50;;;3.20;99.90;;;;;;5013007;28;20198;-86
2020/12/30 06:13:52;;;;;;;0.52;0.52;;;3.20;99.90;;;;;;5012791;28;20257;-86
2020/12/30 06:16:20;;;;;;;0.50;0.50;;;3.30;99.90;;;;;;5012899;28;20213;-86
2020/12/30 06:18:48;;;;;;;0.50;0.50;;;3.20;99.90;;;;;;5012655;28;20202;-86
2020/12/30 06:21:16;;;;;;;0.60;0.60;;;3.50;99.90;;;;;;5012107;28;20206;-87
2020/12/30 06:23:46;;;;;;;0.57;0.57;;;4.90;99.90;;;;;;5012343;28;20244;-86
2020/12/30 06:26:17;;;;;;;0.50;0.50;;;3.20;99.90;;;;;;5012810;28;20202;-86
2020/12/30 06:28:49;;;;;;;0.60;0.60;;;3.20;99.90;;;;;;5011953;28;20571;-86
2020/12/30 06:31:15;;;;;;;0.50;0.50;;;3.20;99.90;;;;;;5012117;28;20210;-86
2020/12/30 06:33:42;;;;;;;0.50;0.50;;;3.20;99.90;;;;;;5011154;28;20198;-86
2020/12/30 06:36:08;;;;;;;0.50;0.50;;;3.20;99.90;;;;;;5011460;28;20206;-86
2020/12/30 06:38:34;;;;;;;0.50;0.50;;;3.20;99.90;;;;;;5010841;28;20197;-86
2020/12/30 06:41:02;;;;;;;0.60;0.60;;;3.20;99.90;;;;;;5012150;28;20210;-86
2020/12/30 06:43:39;;;;;;;0.60;0.60;;;3.20;99.90;;;;;;5012216;28;20274;-86
2020/12/30 06:46:05;;;;;;;0.60;0.60;;;3.20;99.90;;;;;;5012332;28;20202;-86
2020/12/30 06:48:51;;;;;;;0.60;0.60;;;3.20;99.90;;;;;;5011585;28;20260;-87
2020/12/30 06:51:17;;;;;;;0.50;0.50;;;3.20;99.90;;;;;;5010849;28;20201;-86
2020/12/30 06:53:49;;;;;;;0.50;0.50;;;3.20;99.90;;;;;;5011150;28;20202;-86
2020/12/30 06:56:35;;;;;;;0.60;0.60;;;3.20;99.90;;;;;;5011483;28;20206;-86
2020/12/30 06:59:01;;;;;;;0.60;0.60;;;3.10;99.90;;;;;;5010985;28;20653;-86
2020/12/30 07:01:28;;;;;;;0.50;0.50;;;3.10;99.90;;;;;;5011200;28;20232;-86
2020/12/30 07:04:06;;;;;;;0.57;0.57;;;3.10;99.90;;;;;;4993729;28;20207;-86
2020/12/30 07:06:35;;;;;;;0.60;0.60;;;3.10;99.90;;;;;;4992853;28;20801;-85
2020/12/30 07:09:03;;;;;;;0.50;0.50;;;3.00;99.90;;;;;;4992677;28;20572;-86
2020/12/30 07:11:41;;;;;;;0.50;0.50;;;3.00;99.90;;;;;;4992133;28;20252;-86
2020/12/30 07:14:09;;;;;;;0.50;0.50;;;2.90;99.90;;;;;;4991858;28;20229;-86
2020/12/30 07:16:35;;;;;;;0.60;0.60;;;2.90;99.90;;;;;;4991782;28;20202;-86
2020/12/30 07:19:08;;;;;;;0.60;0.60;;;2.90;99.90;;;;;;4991463;28;20257;-86
2020/12/30 07:21:47;;;;;;;0.50;0.50;;;2.90;99.90;;;;;;4991047;28;20500;-86
2020/12/30 07:24:19;;;;;;;0.50;0.50;;;2.80;99.90;;;;;;4991118;28;20230;-86
2020/12/30 07:26:47;;;;;;;0.60;0.60;;;2.80;99.90;;;;;;4990636;28;20626;-86
2020/12/30 07:29:14;;;;;;;0.60;0.60;;;2.80;99.90;;;;;;4990802;28;20941;-85
2020/12/30 07:31:40;;;;;;;0.60;0.60;;;2.70;99.90;;;;;;4990982;28;20293;-86
2020/12/30 07:34:14;;;;;;;0.50;0.50;;;2.70;99.90;;;;;;4990755;28;20280;-85
2020/12/30 07:36:41;;;;;;;0.50;0.50;;;2.70;99.90;;;;;;4991246;28;20572;-86
2020/12/30 07:39:08;;;;;;;0.60;0.60;;;2.70;99.90;;;;;;4990574;28;20202;-86
2020/12/30 07:41:36;;;;;;;0.50;0.50;;;2.70;99.90;;;;;;4990955;28;20202;-85
2020/12/30 07:44:04;;;;;;;0.52;0.52;;;2.70;99.90;;;;;;4991005;28;20202;-86
2020/12/30 07:46:31;;;;;;;0.50;0.50;;;2.60;99.90;;;;;;4990758;28;20415;-85
2020/12/30 07:49:11;;;;;;;0.50;0.50;;;2.60;99.90;;;;;;4991239;28;20213;-85
2020/12/30 07:51:44;;;;;;;0.60;0.60;;;2.60;99.90;;;;;;4991005;28;20655;-85
2020/12/30 07:54:13;;;;;;;0.50;0.50;;;2.60;99.90;;;;;;4990745;28;20229;-85
2020/12/30 07:56:42;;;;;;;0.50;0.50;;;2.50;99.90;;;;;;4990599;28;20631;-85
2020/12/30 07:59:10;;;;;;;0.50;0.50;;;2.50;99.90;;;;;;4990925;28;20677;-85
2020/12/30 08:01:36;;;;;;;0.50;0.50;;;2.50;99.90;;;;;;4990699;28;20198;-85
2020/12/30 08:04:07;;;;;;;0.50;0.50;;;2.40;99.90;;;;;;4990797;28;20206;-85
2020/12/30 08:06:45;;;;;;;0.50;0.50;;;2.40;99.90;;;;;;5011003;28;20198;-85
2020/12/30 08:09:12;;;;;;;0.57;0.57;;;2.30;99.90;;;;;;5010988;28;20205;-85
2020/12/30 08:11:50;;;;;;;0.60;0.60;;;2.30;99.90;;;;;;5011498;28;20205;-85
2020/12/30 08:14:18;;;;;;;0.60;0.60;;;2.10;99.90;;;;;;5011068;28;20232;-86
2020/12/30 08:16:58;;;;;;;0.50;0.50;;;2.20;99.90;;;;;;5011565;28;20202;-86
2020/12/30 08:19:33;;;;;;;0.50;0.50;;;2.10;99.90;;;;;;5010676;28;20252;-86
2020/12/30 08:22:02;;;;;;;0.55;0.55;;;2.00;99.90;;;;;;5010348;28;20228;-85
2020/12/30 08:24:29;;;;;;;0.50;0.50;;;2.00;99.90;;;;;;5026828;28;20267;-86
2020/12/30 08:26:56;;;;;;;0.50;0.50;;;2.00;99.90;;;;;;5030124;28;20207;-86
2020/12/30 08:29:27;;;;;;;0.50;0.50;;;2.00;99.90;;;;;;5030760;28;20205;-86
2020/12/30 08:31:57;;;;;;;0.50;0.50;;;1.90;99.90;;;;;;5030920;28;20213;-85
2020/12/30 08:34:27;;;;;;;0.50;0.50;;;2.00;99.90;;;;;;5031208;28;20289;-86
2020/12/30 08:37:02;;;;;;;0.60;0.60;;;3.10;99.90;;;;;;5031170;28;20208;-85
2020/12/30 08:39:30;;;;;;;0.60;0.60;;;1.90;99.90;;;;;;5029715;28;20201;-85
2020/12/30 08:41:59;;;;;;;0.57;0.57;;;2.00;99.90;;;;;;5031052;28;20205;-86
2020/12/30 08:44:26;;;;;;;0.57;0.57;;;2.00;99.90;;;;;;5028959;28;20205;-86
2020/12/30 08:46:57;;;;;;;0.60;0.60;;;2.00;99.90;;;;;;5027658;28;20690;-85
2020/12/30 08:49:24;;;;;;;0.60;0.60;;;2.00;99.90;;;;;;5028891;28;20205;-86
2020/12/30 08:51:50;;;;;;;0.50;0.50;;;2.00;99.90;;;;;;5030221;28;20201;-86
2020/12/30 08:54:18;;;;;;;0.50;0.50;;;2.00;99.90;;;;;;5029837;28;20263;-86
2020/12/30 08:56:46;;;;;;;0.60;0.60;;;2.00;99.90;;;;;;5029589;28;20805;-86
2020/12/30 08:59:21;;;;;;;0.52;0.52;;;2.00;99.90;;;;;;5030592;28;20220;-86
2020/12/30 09:01:48;;;;;;;0.50;0.50;;;2.10;99.90;;;;;;5030544;28;20201;-86
2020/12/30 09:04:15;;;;;;;0.50;0.50;;;2.10;99.90;;;;;;5031091;28;20201;-85
2020/12/30 09:06:49;;;;;;;0.50;0.50;;;1.60;99.90;;;;;;5030369;28;20288;-86
2020/12/30 09:09:19;;;;;;;0.50;0.50;;;2.20;99.90;;;;;;5030866;28;20209;-86
2020/12/30 09:11:46;;;;;;;0.55;0.55;;;2.20;99.90;;;;;;5030633;28;20197;-86
2020/12/30 09:14:14;;;;;;;0.50;0.50;;;2.20;99.90;;;;;;5030971;28;20221;-86
2020/12/30 09:16:54;;;;;;;0.50;0.50;;;2.30;99.90;;;;;;5030479;28;20620;-86
2020/12/30 09:19:21;;;;;;;0.50;0.50;;;2.20;99.90;;;;;;5030931;28;20610;-86
2020/12/30 09:21:47;;;;;;;0.50;0.50;;;2.20;99.90;;;;;;5030512;28;20745;-86
2020/12/30 09:24:14;;;;;;;0.55;0.55;;;2.30;99.90;;;;;;5030120;28;20233;-86
2020/12/30 09:26:40;;;;;;;0.50;0.50;;;2.30;99.90;;;;;;5030676;28;20201;-86
2020/12/30 09:29:19;;;;;;;0.57;0.57;;;2.30;99.90;;;;;;5030353;28;20200;-86
2020/12/30 09:31:55;;;;;;;0.50;0.50;;;2.30;99.90;;;;;;5033141;28;20247;-86
2020/12/30 09:34:22;;;;;;;0.50;0.50;;;2.30;99.90;;;;;;5033811;28;20216;-86
2020/12/30 09:36:53;;;;;;;0.60;0.60;;;2.30;99.90;;;;;;5032068;28;20209;-86
2020/12/30 09:39:19;;;;;;;0.50;0.50;;;2.40;99.90;;;;;;5022769;28;20707;-86
2020/12/30 09:41:46;;;;;;;0.60;0.60;;;2.40;99.90;;;;;;5032131;28;20205;-85
2020/12/30 09:44:15;;;;;;;0.50;0.50;;;2.50;99.90;;;;;;5032604;28;20565;-87
2020/12/30 09:46:51;;;;;;;0.60;0.60;;;2.50;99.90;;;;;;5032154;28;20212;-86
2020/12/30 09:49:22;;;;;;;0.50;0.50;;;2.50;99.90;;;;;;5032704;28;20209;-85
2020/12/30 09:51:54;;;;;;;0.50;0.50;;;2.60;99.90;;;;;;5031430;28;20205;-85
2020/12/30 09:54:20;;;;;;;0.50;0.50;;;2.60;99.90;;;;;;5032570;28;20235;-85
2020/12/30 09:56:49;;;;;;;0.50;0.50;;;2.70;99.90;;;;;;5032062;28;20201;-86
2020/12/30 09:59:20;;;;;;;0.50;0.50;;;2.70;99.90;;;;;;5032553;28;20563;-86
2020/12/30 10:01:47;;;;;;;0.50;0.50;;;2.70;99.90;;;;;;5032687;28;20202;-86
2020/12/30 10:04:13;;;;;;;0.50;0.50;;;2.80;99.90;;;;;;5032112;28;20204;-85
2020/12/30 10:06:40;;;;;;;0.52;0.52;;;2.80;99.90;;;;;;5032249;28;20283;-85
2020/12/30 10:09:06;;;;;;;0.60;0.60;;;2.80;99.90;;;;;;5032555;28;20197;-86
2020/12/30 10:11:32;;;;;;;0.50;0.50;;;2.90;99.90;;;;;;5031815;28;20267;-86
2020/12/30 10:13:58;;;;;;;0.50;0.50;;;2.90;99.90;;;;;;5032136;28;20200;-85
2020/12/30 10:16:30;;;;;;;0.50;0.50;;;2.90;99.90;;;;;;5032030;28;20254;-85
2020/12/30 10:18:56;;;;;;;0.50;0.50;;;3.00;99.90;;;;;;5031710;28;20209;-86
2020/12/30 10:21:28;;;;;;;0.50;0.50;;;3.00;99.90;;;;;;5031880;28;20205;-85
2020/12/30 10:23:55;;;;;;;0.60;0.60;;;3.00;99.90;;;;;;5031476;28;20229;-86
2020/12/30 10:26:21;;;;;;;0.50;0.50;;;3.00;99.90;;;;;;5031642;28;20209;-86
2020/12/30 10:28:47;;;;;;;0.50;0.50;;;3.00;99.90;;;;;;5030929;28;20418;-86
2020/12/30 10:31:13;;;;;;;0.60;0.60;;;3.00;99.90;;;;;;5031553;28;20204;-86
2020/12/30 10:33:40;;;;;;;0.60;0.60;;;3.00;99.90;;;;;;5031171;28;20200;-86
2020/12/30 10:36:06;;;;;;;0.50;0.50;;;3.00;99.90;;;;;;5031102;28;20648;-86
2020/12/30 10:38:32;;;;;;;0.50;0.50;;;3.00;99.90;;;;;;5031245;28;20292;-86
2020/12/30 10:40:59;;;;;;;0.50;0.50;;;3.00;99.90;;;;;;5030222;28;20335;-86
2020/12/30 10:43:26;;;;;;;0.60;0.60;;;3.10;99.90;;;;;;5030862;28;20216;-86
2020/12/30 10:45:52;;;;;;;0.60;0.60;;;3.20;99.90;;;;;;5029529;28;20263;-88
2020/12/30 10:48:18;;;;;;;0.50;0.50;;;3.20;99.90;;;;;;5031421;28;20201;-87
2020/12/30 10:50:50;;;;;;;0.57;0.57;;;3.20;99.90;;;;;;5031824;28;20205;-87
2020/12/30 10:53:58;;;;;;;0.50;0.50;;;3.30;99.90;;;;;;5032475;28;20214;-87
2020/12/30 10:56:27;;;;;;;0.50;0.50;;;4.60;99.90;;;;;;5032134;28;20601;-87
2020/12/30 10:58:53;;;;;;;0.60;0.60;;;3.40;99.90;;;;;;5030005;28;20722;-87
2020/12/30 11:01:19;;;;;;;0.60;0.60;;;3.50;99.90;;;;;;5014856;28;20205;-87
2020/12/30 11:03:45;;;;;;;0.52;0.52;;;3.50;99.90;;;;;;5014502;28;20209;-87
2020/12/30 11:06:11;;;;;;;0.50;0.50;;;3.70;99.90;;;;;;5011766;28;20823;-86
2020/12/30 11:08:38;;;;;;;0.60;0.60;;;3.80;99.90;;;;;;5011463;28;20215;-88
2020/12/30 11:11:06;;;;;;;0.50;0.50;;;3.60;99.90;;;;;;5010628;28;20197;-87
2020/12/30 11:13:33;;;;;;;0.50;0.50;;;3.90;99.90;;;;;;5010381;28;20202;-87
2020/12/30 11:15:59;;;;;;;0.50;0.50;;;3.20;99.90;;;;;;5011003;28;20323;-88
2020/12/30 11:18:26;;;;;;;0.50;0.50;;;5.40;99.90;;;;;;5010949;28;20248;-88
2020/12/30 11:20:52;;;;;;;0.60;0.60;;;3.90;99.90;;;;;;5013910;28;20267;-87
2020/12/30 11:23:18;;;;;;;0.60;0.60;;;3.90;99.90;;;;;;5019205;28;20233;-87
2020/12/30 11:25:47;;;;;;;0.60;0.60;;;4.10;99.90;;;;;;5024850;28;20236;-87
2020/12/30 11:28:14;;;;;;;0.50;0.50;;;4.40;99.90;;;;;;4992747;28;20253;-87
2020/12/30 11:30:41;;;;;;;0.60;0.60;;;4.90;99.90;;;;;;4992450;28;20206;-87
2020/12/30 11:33:07;;;;;;;0.60;0.60;;;5.30;99.90;;;;;;4992147;28;20206;-87
2020/12/30 11:35:34;;;;;;;0.60;0.60;;;6.10;99.90;;;;;;4992102;28;20244;-87
2020/12/30 11:38:01;;;;;;;0.60;0.60;;;5.90;99.90;;;;;;4991526;28;20293;-87
2020/12/30 11:40:27;;;;;;;0.60;0.60;;;6.10;99.90;;;;;;4991750;28;20198;-87
2020/12/30 11:42:54;;;;;;;0.60;0.60;;;7.10;99.90;;;;;;4992378;28;20207;-87
2020/12/30 11:45:21;;;;;;;0.60;0.60;;;5.80;99.90;;;;;;4993025;28;20580;-87
2020/12/30 11:47:48;;;;;;;0.60;0.60;;;5.50;99.90;;;;;;4993113;28;20677;-87
2020/12/30 11:50:15;;;;;;;0.60;0.60;;;5.70;99.90;;;;;;4992275;28;20209;-88
2020/12/30 11:52:42;;;;;;;0.55;0.55;;;5.20;99.90;;;;;;4992438;28;20210;-87
2020/12/30 11:55:08;;;;;;;0.60;0.60;;;6.60;99.90;;;;;;4992049;28;20241;-87
2020/12/30 11:57:37;;;;;;;0.60;0.60;;;4.90;99.90;;;;;;4992540;28;20206;-88
2020/12/30 12:00:08;;;;;;;0.60;0.60;;;4.30;99.90;;;;;;4991958;28;20713;-87
2020/12/30 12:02:35;;;;;;;0.57;0.57;;;4.30;99.90;;;;;;4991224;28;20260;-88
2020/12/30 12:05:03;;;;;;;0.50;0.50;;;4.50;99.90;;;;;;4991416;28;20210;-88
2020/12/30 12:07:30;;;;;;;0.52;0.52;;;4.20;99.90;;;;;;4991900;28;20206;-88
2020/12/30 12:09:59;;;;;;;0.60;0.60;;;4.40;99.90;;;;;;4995800;28;20197;-87
2020/12/30 12:12:26;;;;;;;0.50;0.50;;;4.60;99.90;;;;;;4997187;28;20669;-88
2020/12/30 12:14:53;;;;;;;0.60;0.60;;;4.30;99.90;;;;;;5000976;28;20213;-87
2020/12/30 12:17:22;;;;;;;0.60;0.60;;;4.30;99.90;;;;;;5002664;28;20194;-88
2020/12/30 12:19:51;;;;;;;0.50;0.50;;;4.60;99.90;;;;;;4999004;28;20304;-87
2020/12/30 12:22:31;;;;;;;0.60;0.60;;;4.30;99.90;;;;;;5001175;28;20209;-88
2020/12/30 12:25:04;;;;;;;0.60;0.60;;;4.70;99.90;;;;;;4990062;28;20249;-87
2020/12/30 12:27:30;;;;;;;0.60;0.60;;;4.70;99.90;;;;;;4989665;28;20195;-88
2020/12/30 12:32:59;;;;;;;0.50;0.50;;;4.00;99.90;;;;;;4987074;28;20208;-88
2020/12/30 12:35:34;;;;;;;0.55;0.55;;;4.90;99.90;;;;;;4988457;28;20222;-87
2020/12/30 12:38:13;;;;;;;0.60;0.60;;;4.50;99.90;;;;;;4991741;28;20846;-87
2020/12/30 12:40:40;;;;;;;0.50;0.50;;;4.40;99.90;;;;;;4990711;28;20206;-88
2020/12/30 12:43:18;;;;;;;0.50;0.50;;;4.90;99.90;;;;;;4985986;28;20206;-86
2020/12/30 12:45:44;;;;;;;0.60;0.60;;;4.40;99.90;;;;;;4989868;28;20214;-86
2020/12/30 12:48:18;;;;;;;0.50;0.50;;;4.30;99.90;;;;;;4990249;28;20213;-86
2020/12/30 12:50:44;;;;;;;0.57;0.57;;;4.30;99.90;;;;;;4990046;28;20390;-86
2020/12/30 12:53:17;;;;;;;0.60;0.60;;;4.30;99.90;;;;;;4990259;28;20301;-86
2020/12/30 12:55:44;;;;;;;0.60;0.60;;;4.40;99.90;;;;;;4990895;28;20230;-86
2020/12/30 12:58:10;;;;;;;0.55;0.55;;;4.10;99.90;;;;;;4990888;28;20628;-85
2020/12/30 13:00:38;;;;;;;0.50;0.50;;;4.30;99.90;;;;;;4991043;28;20203;-85
2020/12/30 13:03:29;;;;;;;0.50;0.50;;;5.00;99.90;;;;;;4990713;28;20207;-86
2020/12/30 13:05:57;;;;;;;0.60;0.60;;;5.80;99.90;;;;;;4994791;28;20198;-85
2020/12/30 13:08:26;;;;;;;0.60;0.60;;;4.30;99.90;;;;;;4995884;28;20214;-86
2020/12/30 13:10:52;;;;;;;0.50;0.50;;;3.90;99.90;;;;;;4995164;28;20297;-85
2020/12/30 13:13:39;;;;;;;0.50;0.50;;;4.20;99.90;;;;;;4995264;28;20207;-85